KNLC/NLC METAR and TAF weather

Enter ICAO airport designator
Station Type Date Time Source
KNLC METAR 2020/02/20 17:56 UTC NOAA

KNLC 201756Z 35003KT 10SM SCT250 14/03 A3018 RMK AO2 SLP219 RH/48 T01440033 10144 20017 51012


Station Type Date Time Source
KNLC Decoded METAR 2020/02/20 17:56 UTC NOAA

LEMOORE NAVAL AIR STATION, CA, United States (KNLC) 36-20N 119-57W 72M
Feb 20, 2020 - 12:56 PM EST / 2020.02.20 1756 UTC
Wind: from the N (350 degrees) at 3 MPH (3 KT):0
Visibility: 10 mile(s):0
Sky conditions: partly cloudy
Temperature: 57.9 F (14.4 C)
Dew Point: 37.9 F (3.3 C)
Relative Humidity: 47%
Pressure (altimeter): 30.18 in. Hg (1022 hPa)
Pressure tendency: 0.04 inches (1.2 hPa) higher than three hours ago
ob: KNLC 201756Z 35003KT 10SM SCT250 14/03 A3018 RMK AO2 SLP219 RH/48 T01440033 10144 20017 51012
cycle: 18

Station Type Date Time Source
KNLC TAF 2020/02/20 15:08 UTC NOAA

TAF KNLC 2015/2115 VRB06KT 9999 FEW250 QNH3004INS
FM210400 32009KT 9999 SCT150 QNH3007INS T23/2120Z T02/2113Z FS30164

Example: see airport list